Time;durP1;ratioP1;P1;durP2;ratioP2;P2;SDS_P1;SDS_P2;PMS_P1;PMS_P2;Temp;Humidity;BMP_temperature;BMP_pressure;BME280_temperature;BME280_humidity;BME280_pressure;Samples;Min_cycle;Max_cycle;Signal;HPM_P1;HPM_P2
2021/05/06 00:05:08;;;;;;;7.72;2.85;;;;;;;13.91;54.74;99312.36;1788945;80;21032;-54
2021/05/06 00:29:56;;;;;;;5.25;2.85;;;;;;;13.55;55.57;99303.77;1783567;80;21228;-54
2021/05/06 00:32:18;;;;;;;10.38;4.00;;;;;;;13.53;55.40;99297.75;1779688;80;21037;-54
2021/05/06 00:34:37;;;;;;;5.42;2.95;;;;;;;13.51;55.53;99294.51;1780047;80;21065;-55
2021/05/06 00:37:05;;;;;;;5.47;3.27;;;;;;;13.49;55.36;99294.83;1783504;80;20990;-54
2021/05/06 00:39:40;;;;;;;9.25;3.00;;;;;;;13.48;55.33;99293.20;1783479;80;21028;-54
2021/05/06 00:42:16;;;;;;;6.75;3.67;;;;;;;13.46;55.28;99298.20;1782397;80;21204;-54
2021/05/06 01:06:13;;;;;;;8.90;3.58;;;;;;;13.18;55.09;99270.05;1783452;80;21060;-54
2021/05/06 01:08:45;;;;;;;7.17;2.83;;;;;;;13.14;55.15;99263.77;1752781;80;21291;-54
2021/05/06 01:13:46;;;;;;;7.70;2.85;;;;;;;13.10;55.27;99265.56;1754585;80;21041;-54
2021/05/06 01:16:16;;;;;;;6.20;2.58;;;;;;;13.07;55.21;99252.39;1783116;80;21017;-54
2021/05/06 01:18:44;;;;;;;6.45;2.95;;;;;;;13.06;55.28;99263.20;1783390;80;21030;-54
2021/05/06 01:21:11;;;;;;;6.20;3.10;;;;;;;13.03;55.34;99273.48;1783433;80;21186;-54
2021/05/06 01:23:42;;;;;;;7.08;2.90;;;;;;;12.99;55.51;99266.14;1783351;79;21039;-54
2021/05/06 01:26:17;;;;;;;9.60;3.55;;;;;;;12.93;55.59;99258.58;1783793;79;21006;-54
2021/05/06 01:28:45;;;;;;;4.50;2.90;;;;;;;12.88;55.62;99262.88;1797744;79;21650;-55
2021/05/06 01:31:20;;;;;;;4.60;2.67;;;;;;;12.84;55.85;99261.87;1797907;79;20981;-54
2021/05/06 01:34:28;;;;;;;6.75;2.58;;;;;;;12.79;55.98;99266.39;1798118;79;22268;-54
2021/05/06 01:36:27;;;;;;;7.53;2.98;;;;;;;12.77;55.96;99259.56;1784408;79;21063;-54
2021/05/06 01:39:17;;;;;;;6.33;3.35;;;;;;;12.74;56.17;99256.07;1797617;79;21048;-54
2021/05/06 01:47:18;;;;;;;7.78;3.10;;;;;;;12.70;56.31;99246.23;1797604;79;21147;-54
2021/05/06 01:49:28;;;;;;;8.33;2.92;;;;;;;12.72;56.07;99252.26;1782987;79;20996;-54
2021/05/06 02:00:12;;;;;;;5.92;2.95;;;;;;;12.71;55.88;99246.49;1797015;79;22187;-54
2021/05/06 02:02:41;;;;;;;7.28;2.72;;;;;;;12.70;55.90;99240.72;1797785;79;21029;-53
2021/05/06 02:05:11;;;;;;;5.70;2.80;;;;;;;12.69;55.88;99246.01;1797614;79;20969;-54
2021/05/06 02:07:40;;;;;;;7.62;3.42;;;;;;;12.67;55.81;99231.72;1797883;79;21013;-53
2021/05/06 02:10:13;;;;;;;5.67;3.10;;;;;;;12.64;55.94;99226.84;1797905;79;21017;-53
2021/05/06 02:12:42;;;;;;;8.38;3.67;;;;;;;12.64;55.91;99229.61;1797927;78;21194;-53
2021/05/06 02:15:22;;;;;;;6.75;3.50;;;;;;;12.61;55.79;99226.91;1797867;79;20954;-55
2021/05/06 02:17:47;;;;;;;5.62;2.62;;;;;;;12.60;55.87;99220.34;1797562;79;21056;-54
2021/05/06 02:20:16;;;;;;;7.03;3.15;;;;;;;12.59;55.79;99229.76;1797800;79;20989;-53
2021/05/06 02:22:48;;;;;;;6.90;3.15;;;;;;;12.57;55.80;99214.90;1797563;79;21650;-55
2021/05/06 02:25:15;;;;;;;6.17;3.30;;;;;;;12.54;55.88;99226.55;1797887;79;21356;-56
2021/05/06 02:27:43;;;;;;;7.08;3.12;;;;;;;12.52;55.85;99215.05;1789873;79;21025;-55
2021/05/06 02:30:12;;;;;;;6.45;2.83;;;;;;;12.49;55.91;99213.48;1783238;80;21001;-55
2021/05/06 02:32:40;;;;;;;4.70;2.95;;;;;;;12.47;55.96;99221.25;1783314;80;20974;-55
2021/05/06 02:35:10;;;;;;;7.22;3.37;;;;;;;12.43;55.97;99227.40;1783262;80;21033;-55
2021/05/06 02:37:37;;;;;;;9.45;3.72;;;;;;;12.40;56.15;99215.64;1783282;80;21388;-55
2021/05/06 02:40:08;;;;;;;12.35;3.70;;;;;;;12.36;56.15;99219.31;1782992;80;21049;-55
2021/05/06 02:42:35;;;;;;;9.15;3.75;;;;;;;12.34;56.21;99229.84;1783265;79;21694;-55
2021/05/06 02:45:04;;;;;;;6.95;3.55;;;;;;;12.29;56.33;99240.44;1783415;79;20985;-55
2021/05/06 02:47:31;;;;;;;6.37;3.00;;;;;;;12.26;56.37;99236.91;1783253;80;21576;-55
2021/05/06 02:49:59;;;;;;;6.50;3.02;;;;;;;12.23;56.46;99233.41;1783319;80;22095;-55
2021/05/06 02:52:40;;;;;;;6.10;2.72;;;;;;;12.20;56.65;99226.61;1783322;79;21575;-55
2021/05/06 02:55:16;;;;;;;7.58;3.35;;;;;;;12.16;56.77;99226.16;1781908;80;21619;-53
2021/05/06 03:02:57;;;;;;;5.78;2.87;;;;;;;12.06;57.19;99227.22;1783430;80;21389;-54
2021/05/06 03:05:31;;;;;;;6.70;3.00;;;;;;;12.03;57.28;99225.92;1783162;80;21025;-54
2021/05/06 03:08:10;;;;;;;5.97;2.80;;;;;;;12.01;57.35;99232.28;1783261;80;21041;-54
2021/05/06 03:10:46;;;;;;;7.33;3.35;;;;;;;11.99;57.43;99216.66;1783153;80;21642;-54
2021/05/06 03:23:49;;;;;;;9.45;3.55;;;;;;;12.01;57.76;99214.40;1783305;80;21148;-53
2021/05/06 03:26:17;;;;;;;6.22;2.90;;;;;;;12.06;57.77;99221.17;1783334;80;21030;-53
2021/05/06 03:28:53;;;;;;;7.50;3.17;;;;;;;12.09;57.68;99219.16;1794938;79;22290;-53
2021/05/06 03:42:16;;;;;;;8.25;3.27;;;;;;;12.11;57.68;99239.48;1797901;79;21152;-54
2021/05/06 03:44:54;;;;;;;7.40;3.30;;;;;;;12.09;57.76;99241.75;1797183;79;21033;-54
2021/05/06 04:27:48;;;;;;;7.28;4.05;;;;;;;12.74;56.80;99294.06;1779176;80;20974;-54
2021/05/06 04:35:39;;;;;;;11.05;4.78;;;;;;;12.70;56.99;99307.41;1782462;80;21186;-54
2021/05/06 04:38:15;;;;;;;7.58;3.55;;;;;;;12.73;57.01;99302.65;1782328;80;21072;-54
2021/05/06 04:54:27;;;;;;;6.47;3.17;;;;;;;12.89;56.89;99316.83;1782330;80;21041;-54
2021/05/06 05:05:12;;;;;;;9.25;4.37;;;;;;;13.01;56.63;99333.61;1757105;81;21609;-54
2021/05/06 05:07:44;;;;;;;7.67;3.60;;;;;;;13.04;56.75;99326.66;1757406;80;21601;-54
2021/05/06 05:10:33;;;;;;;11.43;3.80;;;;;;;13.10;56.61;99333.10;1757097;81;21055;-54
2021/05/06 05:26:23;;;;;;;9.10;3.62;;;;;;;13.37;56.46;99344.27;1888203;76;22601;-54
2021/05/06 05:28:50;;;;;;;10.32;4.15;;;;;;;13.37;56.23;99343.69;1858786;77;21611;-54
2021/05/06 05:31:18;;;;;;;9.48;3.67;;;;;;;13.40;56.19;99352.70;1821332;78;21380;-54
2021/05/06 05:33:57;;;;;;;8.13;4.30;;;;;;;13.39;56.34;99344.20;1821166;78;21087;-54
2021/05/06 05:36:22;;;;;;;12.78;3.70;;;;;;;13.40;56.53;99351.32;1820732;78;21011;-55
2021/05/06 05:54:46;;;;;;;9.48;3.90;;;;;;;13.42;57.96;99367.58;1838996;77;21204;-55
2021/05/06 05:57:10;;;;;;;14.93;7.05;;;;;;;13.45;57.72;99384.86;1847865;77;21203;-55
2021/05/06 05:59:38;;;;;;;7.85;3.98;;;;;;;13.46;57.81;99377.65;1849081;77;21017;-54
2021/05/06 06:02:06;;;;;;;18.17;5.50;;;;;;;13.57;57.57;99371.26;1815935;78;21013;-54
2021/05/06 06:04:34;;;;;;;11.08;3.87;;;;;;;13.67;57.34;99381.78;1819636;78;21041;-56
2021/05/06 06:07:02;;;;;;;10.00;4.30;;;;;;;13.75;57.00;99385.13;1815923;79;20967;-55
2021/05/06 06:09:30;;;;;;;17.62;4.42;;;;;;;13.79;56.98;99386.13;1819772;78;21196;-55
2021/05/06 06:11:58;;;;;;;10.98;4.37;;;;;;;13.81;56.95;99387.41;1815837;79;21029;-56
2021/05/06 06:14:37;;;;;;;15.63;4.95;;;;;;;13.85;56.81;99392.28;1787245;80;21075;-55
2021/05/06 06:16:55;;;;;;;20.32;4.80;;;;;;;13.86;56.84;99403.58;1813874;79;21576;-56
2021/05/06 06:19:30;;;;;;;21.55;4.60;;;;;;;13.90;56.80;99396.28;1771552;80;21047;-56
2021/05/06 06:22:00;;;;;;;14.38;3.90;;;;;;;13.94;56.63;99400.03;1754955;81;22321;-55
2021/05/06 06:24:22;;;;;;;11.88;5.00;;;;;;;13.97;56.74;99398.80;1758540;81;21060;-55
2021/05/06 06:26:49;;;;;;;8.55;3.90;;;;;;;13.99;56.60;99409.56;1760535;81;21039;-55
2021/05/06 06:29:19;;;;;;;8.58;4.08;;;;;;;14.00;56.63;99411.16;1760701;81;21068;-55
2021/05/06 06:31:49;;;;;;;9.60;4.03;;;;;;;14.01;56.83;99427.98;1759699;81;21009;-55
2021/05/06 06:34:16;;;;;;;10.82;3.67;;;;;;;14.04;56.84;99429.30;1756375;81;22023;-55
2021/05/06 06:36:45;;;;;;;22.93;5.55;;;;;;;14.08;57.10;99440.75;1744046;82;21021;-55
2021/05/06 06:39:16;;;;;;;7.80;4.47;;;;;;;14.04;57.30;99442.52;1754452;81;21015;-55
2021/05/06 06:41:44;;;;;;;10.23;4.37;;;;;;;13.98;57.52;99436.91;1752036;80;21127;-55
2021/05/06 06:44:15;;;;;;;15.23;5.67;;;;;;;13.91;57.91;99435.18;1778623;80;20971;-56
2021/05/06 06:46:43;;;;;;;9.30;4.50;;;;;;;13.95;58.03;99456.88;1778410;80;22329;-55
2021/05/06 06:49:11;;;;;;;8.10;4.87;;;;;;;14.00;58.28;99456.71;1748060;80;21017;-54
2021/05/06 06:51:39;;;;;;;15.48;5.53;;;;;;;14.04;58.29;99453.56;1778016;80;21002;-55
2021/05/06 06:54:12;;;;;;;12.35;6.53;;;;;;;14.04;58.49;99459.08;1777766;80;20975;-55
2021/05/06 06:56:42;;;;;;;11.48;5.33;;;;;;;14.02;58.82;99464.67;1776126;79;21038;-56
2021/05/06 06:59:10;;;;;;;8.70;5.22;;;;;;;13.91;59.72;99469.69;1779364;80;22247;-55
2021/05/06 07:01:39;;;;;;;15.13;5.55;;;;;;;13.87;60.40;99483.30;1778483;80;20998;-55
2021/05/06 07:04:07;;;;;;;8.75;5.37;;;;;;;13.83;61.66;99478.16;1777759;79;21026;-53
2021/05/06 07:06:35;;;;;;;8.83;5.50;;;;;;;13.77;62.71;99489.91;1713104;81;20958;-55
2021/05/06 07:09:03;;;;;;;10.00;5.65;;;;;;;13.69;63.98;99492.08;1749964;80;20968;-54
2021/05/06 07:11:31;;;;;;;9.40;5.35;;;;;;;13.63;65.58;99504.36;1706686;81;21421;-56
2021/05/06 07:14:00;;;;;;;7.70;5.00;;;;;;;13.51;65.67;99505.53;1739927;80;21006;-54
2021/05/06 07:16:27;;;;;;;7.10;4.60;;;;;;;13.38;66.11;99509.42;1751039;80;20999;-55
2021/05/06 07:18:58;;;;;;;6.80;4.08;;;;;;;13.26;66.39;99509.12;1746717;81;21553;-55
2021/05/06 07:21:29;;;;;;;9.35;4.42;;;;;;;13.20;66.94;99518.67;1748962;80;21002;-56
2021/05/06 07:23:58;;;;;;;7.42;3.80;;;;;;;13.16;66.80;99519.04;1750856;81;23128;-56
2021/05/06 07:26:28;;;;;;;6.53;3.58;;;;;;;13.11;66.64;99511.14;1738616;80;21000;-55
2021/05/06 07:28:58;;;;;;;7.00;3.05;;;;;;;13.03;65.76;99516.05;1735543;80;20980;-56
2021/05/06 07:31:27;;;;;;;6.12;3.35;;;;;;;12.89;65.50;99511.11;1741008;80;20964;-56
2021/05/06 07:33:56;;;;;;;8.63;4.10;;;;;;;12.82;66.60;99524.52;1735413;80;21020;-55
2021/05/06 07:36:25;;;;;;;7.37;4.00;;;;;;;12.76;67.12;99554.95;1730964;80;21368;-56
2021/05/06 07:38:54;;;;;;;6.05;3.62;;;;;;;12.63;67.95;99561.28;1735571;80;20960;-54
2021/05/06 07:41:25;;;;;;;9.23;3.65;;;;;;;12.51;68.35;99570.66;1750281;80;21042;-56
2021/05/06 07:43:55;;;;;;;5.05;2.52;;;;;;;12.44;68.16;99584.25;1748624;80;21585;-55
2021/05/06 07:46:24;;;;;;;8.03;5.08;;;;;;;12.38;67.67;99586.86;1747048;80;20982;-55
2021/05/06 07:48:54;;;;;;;8.18;2.85;;;;;;;12.33;67.50;99585.61;1746185;80;21206;-54
2021/05/06 07:51:23;;;;;;;10.50;3.47;;;;;;;12.31;66.70;99580.14;1726860;80;21070;-55
2021/05/06 07:53:55;;;;;;;6.28;2.40;;;;;;;12.25;67.85;99587.69;1731245;80;20967;-55
2021/05/06 07:56:24;;;;;;;11.93;2.72;;;;;;;12.24;67.98;99568.95;1741559;80;21003;-54
2021/05/06 07:58:51;;;;;;;6.37;2.70;;;;;;;12.23;67.87;99586.62;1731242;80;21966;-54
2021/05/06 08:01:19;;;;;;;4.55;2.20;;;;;;;12.18;68.21;99596.91;1737983;80;21457;-55
2021/05/06 08:03:47;;;;;;;6.62;2.42;;;;;;;12.17;68.81;99607.66;1730112;80;20986;-56
2021/05/06 08:06:18;;;;;;;2.52;1.85;;;;;;;12.17;69.08;99609.03;1746086;80;20970;-55
2021/05/06 08:08:50;;;;;;;5.37;2.27;;;;;;;12.16;68.33;99610.14;1745834;80;21685;-54
2021/05/06 08:11:17;;;;;;;5.08;2.70;;;;;;;12.17;68.20;99598.02;1734589;80;21833;-55
2021/05/06 08:13:46;;;;;;;5.30;3.05;;;;;;;12.24;68.33;99596.48;1740205;80;21199;-53
2021/05/06 08:16:13;;;;;;;4.62;2.15;;;;;;;12.31;68.98;99609.86;1758227;80;21615;-54
2021/05/06 08:18:41;;;;;;;8.18;2.50;;;;;;;12.34;67.71;99600.17;1746638;80;20988;-57
2021/05/06 08:21:09;;;;;;;3.47;2.17;;;;;;;12.37;66.74;99611.38;1740956;80;21093;-56
2021/05/06 08:23:37;;;;;;;4.90;2.45;;;;;;;12.44;66.64;99606.28;1738868;80;21567;-56
2021/05/06 08:26:05;;;;;;;5.28;1.77;;;;;;;12.55;66.38;99615.17;1761123;80;21200;-55
2021/05/06 08:28:34;;;;;;;7.12;2.25;;;;;;;12.61;65.12;99608.99;1764958;80;20998;-55
2021/05/06 08:31:02;;;;;;;2.98;1.90;;;;;;;12.65;64.54;99607.27;1762569;80;20978;-55
2021/05/06 08:33:31;;;;;;;2.80;1.72;;;;;;;12.71;64.15;99605.22;1757693;80;21108;-55
2021/05/06 08:35:58;;;;;;;3.85;2.42;;;;;;;12.73;63.59;99624.45;1761749;80;21496;-55
2021/05/06 08:38:27;;;;;;;8.08;2.70;;;;;;;12.77;63.25;99630.98;1752892;80;21395;-55
2021/05/06 08:40:56;;;;;;;5.28;2.27;;;;;;;12.87;63.37;99643.71;1764280;80;21033;-56
2021/05/06 08:43:27;;;;;;;5.20;2.42;;;;;;;12.97;63.31;99650.95;1760010;80;21454;-55
2021/05/06 08:45:54;;;;;;;3.90;2.10;;;;;;;13.03;63.10;99653.88;1736988;80;21924;-56
2021/05/06 08:48:21;;;;;;;11.03;2.95;;;;;;;13.09;61.78;99647.69;1760754;80;20991;-54
2021/05/06 08:50:50;;;;;;;2.92;2.10;;;;;;;13.11;61.41;99653.12;1767157;80;21196;-54
2021/05/06 08:53:18;;;;;;;4.03;2.22;;;;;;;13.17;60.89;99647.51;1767175;80;22250;-55
2021/05/06 08:55:45;;;;;;;6.67;2.80;;;;;;;13.27;60.98;99652.78;1769669;80;20997;-55
2021/05/06 08:58:14;;;;;;;5.75;3.75;;;;;;;13.39;60.14;99664.13;1767047;80;21022;-55
2021/05/06 09:00:43;;;;;;;6.53;3.17;;;;;;;13.46;58.93;99662.30;1762169;80;21014;-53
2021/05/06 09:03:10;;;;;;;3.52;2.47;;;;;;;13.44;58.79;99669.52;1767537;80;21248;-55
2021/05/06 09:06:08;;;;;;;4.78;2.70;;;;;;;13.48;58.86;99680.75;1764568;80;21572;-55
2021/05/06 09:08:37;;;;;;;3.67;2.65;;;;;;;13.54;58.61;99678.70;1761666;80;20990;-55
2021/05/06 09:11:04;;;;;;;5.67;3.10;;;;;;;13.53;57.53;99672.38;1761685;80;20959;-55
2021/05/06 09:13:32;;;;;;;3.65;2.35;;;;;;;13.46;57.99;99674.72;1764650;80;21040;-55
2021/05/06 09:15:59;;;;;;;9.63;3.52;;;;;;;13.51;57.59;99674.61;1769962;80;21094;-56
2021/05/06 09:18:45;;;;;;;3.77;2.60;;;;;;;13.65;58.07;99674.58;1765920;80;21561;-55
2021/05/06 09:21:28;;;;;;;3.72;2.40;;;;;;;13.79;57.58;99676.71;1764042;80;21585;-56
2021/05/06 09:24:19;;;;;;;7.53;5.53;;;;;;;13.97;56.85;99686.48;1768146;80;20974;-55
2021/05/06 09:26:43;;;;;;;6.75;3.33;;;;;;;14.21;57.04;99673.73;1761238;80;21595;-56
2021/05/06 09:29:11;;;;;;;4.72;2.67;;;;;;;14.54;57.42;99670.64;1754121;80;21948;-55
2021/05/06 09:31:41;;;;;;;7.15;2.85;;;;;;;14.80;55.42;99679.09;1754732;80;21009;-55
2021/05/06 09:34:11;;;;;;;9.40;2.52;;;;;;;14.98;53.23;99683.28;1763532;79;21746;-55
2021/05/06 09:36:39;;;;;;;17.00;3.33;;;;;;;15.21;52.14;99679.83;1762824;80;21111;-56
2021/05/06 09:39:09;;;;;;;7.15;3.08;;;;;;;15.44;51.50;99686.03;1764480;80;20993;-54
2021/05/06 09:41:37;;;;;;;8.93;2.67;;;;;;;15.65;50.04;99702.83;1754464;80;22273;-55
2021/05/06 09:44:11;;;;;;;3.52;2.30;;;;;;;15.66;49.13;99706.39;1746626;80;21561;-55
2021/05/06 09:46:42;;;;;;;5.25;2.60;;;;;;;15.59;48.37;99707.45;1762428;80;21013;-56
2021/05/06 09:49:14;;;;;;;8.95;3.15;;;;;;;15.61;48.01;99706.57;1759884;80;21586;-57
2021/05/06 09:51:51;;;;;;;4.97;2.55;;;;;;;15.78;48.28;99704.38;1755590;80;21855;-56
2021/05/06 09:54:23;;;;;;;5.45;2.55;;;;;;;16.10;47.22;99699.48;1760349;80;21991;-55
2021/05/06 09:57:04;;;;;;;7.17;2.72;;;;;;;16.34;47.14;99711.42;1760268;80;21595;-58
2021/05/06 09:59:36;;;;;;;6.22;2.08;;;;;;;16.45;46.73;99707.16;1757425;80;20975;-56
2021/05/06 10:02:17;;;;;;;4.10;2.27;;;;;;;16.54;46.15;99704.36;1752809;80;21134;-59
2021/05/06 10:04:46;;;;;;;6.90;2.62;;;;;;;16.58;45.46;99726.91;1759089;80;20992;-57
2021/05/06 10:07:25;;;;;;;6.37;2.27;;;;;;;16.47;44.09;99717.33;1757117;80;22662;-57
2021/05/06 10:09:57;;;;;;;9.18;2.58;;;;;;;16.26;44.04;99715.02;1763144;80;21049;-55
2021/05/06 10:12:26;;;;;;;6.87;2.40;;;;;;;16.05;44.79;99724.02;1758289;80;21068;-55
2021/05/06 10:14:55;;;;;;;9.90;2.95;;;;;;;16.23;44.88;99726.18;1759810;80;20986;-57
2021/05/06 10:17:24;;;;;;;5.62;2.35;;;;;;;16.38;44.59;99732.59;1762065;80;20927;-55
2021/05/06 10:19:54;;;;;;;7.03;2.60;;;;;;;16.42;43.46;99732.77;1764268;80;21202;-56
2021/05/06 10:22:24;;;;;;;4.72;2.52;;;;;;;16.35;43.37;99728.30;1759653;80;21560;-55
2021/05/06 10:24:53;;;;;;;8.18;2.87;;;;;;;16.35;43.62;99719.41;1758005;80;21937;-54
2021/05/06 10:27:25;;;;;;;14.58;2.52;;;;;;;16.56;43.26;99721.45;1757710;80;20958;-56
2021/05/06 10:29:57;;;;;;;6.58;2.05;;;;;;;16.89;43.20;99730.03;1754560;80;21159;-54
2021/05/06 10:32:28;;;;;;;8.80;2.55;;;;;;;17.07;41.91;99730.73;1757639;80;21464;-54
2021/05/06 10:34:56;;;;;;;3.05;1.92;;;;;;;17.27;40.65;99733.32;1744716;80;21014;-54
2021/05/06 10:37:26;;;;;;;8.48;2.62;;;;;;;17.42;39.62;99728.36;1751694;80;21585;-54
2021/05/06 10:39:54;;;;;;;10.58;2.80;;;;;;;17.51;39.37;99728.30;1764204;80;21053;-54
2021/05/06 10:42:31;;;;;;;4.30;2.02;;;;;;;17.58;39.82;99739.69;1759850;79;21075;-55
2021/05/06 10:45:16;;;;;;;7.20;2.40;;;;;;;17.58;38.75;99735.52;1779416;80;21409;-54
2021/05/06 10:47:54;;;;;;;8.63;2.02;;;;;;;17.36;39.23;99743.01;1759169;80;22203;-54
2021/05/06 10:50:34;;;;;;;5.08;1.82;;;;;;;17.19;40.20;99740.31;1778943;80;21042;-56
2021/05/06 10:53:29;;;;;;;4.72;2.42;;;;;;;17.10;38.97;99734.81;1863188;75;23859;-54
2021/05/06 10:55:57;;;;;;;4.80;2.00;;;;;;;16.96;39.49;99741.97;1824765;76;21009;-54
2021/05/06 10:58:32;;;;;;;2.65;1.60;;;;;;;17.12;39.06;99743.63;1826615;77;21192;-54
2021/05/06 11:01:09;;;;;;;7.03;2.50;;;;;;;17.33;36.95;99748.41;1836852;76;21383;-55
2021/05/06 11:03:39;;;;;;;2.60;1.80;;;;;;;17.55;35.50;99745.33;1824066;77;20994;-55
2021/05/06 11:06:28;;;;;;;5.87;1.77;;;;;;;17.80;35.95;99742.69;1822537;76;21034;-55
2021/05/06 11:08:55;;;;;;;3.77;1.70;;;;;;;18.04;35.39;99739.25;1795031;77;21206;-55
2021/05/06 11:11:23;;;;;;;5.37;1.60;;;;;;;18.19;34.04;99737.83;1803381;77;21192;-55
2021/05/06 11:14:09;;;;;;;3.17;1.70;;;;;;;18.35;33.62;99739.94;1805942;78;21041;-56
2021/05/06 11:16:39;;;;;;;3.27;1.50;;;;;;;18.37;33.76;99742.62;1796976;77;21648;-54
2021/05/06 11:19:09;;;;;;;8.05;1.80;;;;;;;18.40;33.95;99746.09;1820049;78;21033;-54
2021/05/06 11:21:40;;;;;;;1.92;1.10;;;;;;;18.37;33.76;99751.55;1786578;78;21025;-55
2021/05/06 11:24:25;;;;;;;3.92;1.65;;;;;;;18.41;33.58;99742.76;1793853;78;22250;-55
2021/05/06 11:27:12;;;;;;;2.37;1.35;;;;;;;18.52;33.78;99753.69;1795687;78;21304;-55
2021/05/06 11:29:42;;;;;;;6.45;1.62;;;;;;;18.52;33.42;99747.29;1813567;78;22323;-54
2021/05/06 11:32:35;;;;;;;6.70;1.52;;;;;;;18.56;33.06;99730.98;1819219;78;21203;-54
2021/05/06 11:35:04;;;;;;;4.62;1.70;;;;;;;18.44;33.59;99755.97;1818643;76;21037;-55
2021/05/06 11:37:33;;;;;;;3.15;1.45;;;;;;;18.49;33.84;99761.33;1817848;78;21126;-55
2021/05/06 11:40:09;;;;;;;2.80;1.42;;;;;;;18.53;34.00;99756.67;1805397;77;21069;-54
2021/05/06 11:42:38;;;;;;;5.62;1.87;;;;;;;18.48;34.02;99757.71;1813919;77;21064;-55
2021/05/06 11:45:20;;;;;;;8.58;1.57;;;;;;;18.31;34.94;99755.92;1788195;78;20997;-54
2021/05/06 11:47:51;;;;;;;8.40;2.15;;;;;;;18.31;34.43;99755.92;1802165;78;21016;-54
2021/05/06 11:50:32;;;;;;;4.35;1.70;;;;;;;18.36;34.06;99758.25;1812376;78;22560;-54
2021/05/06 11:53:01;;;;;;;5.28;2.17;;;;;;;18.35;33.49;99763.57;1807350;78;21623;-54
2021/05/06 11:55:40;;;;;;;6.90;2.22;;;;;;;18.37;33.80;99764.05;1821665;78;21613;-54
2021/05/06 11:58:10;;;;;;;7.05;2.40;;;;;;;18.50;33.26;99763.52;1806670;78;21056;-56
2021/05/06 12:00:40;;;;;;;6.30;1.92;;;;;;;18.69;33.11;99754.63;1827159;77;21035;-55
2021/05/06 12:03:10;;;;;;;5.92;1.70;;;;;;;18.84;31.97;99760.92;1816986;77;21188;-53
2021/05/06 12:05:56;;;;;;;2.77;1.35;;;;;;;18.89;32.09;99763.52;1818284;77;21617;-54
2021/05/06 12:08:31;;;;;;;5.05;1.85;;;;;;;18.90;31.27;99756.78;1814334;77;21332;-55
2021/05/06 12:11:04;;;;;;;10.08;1.92;;;;;;;18.97;30.53;99762.58;1812575;78;21017;-55
2021/05/06 12:13:35;;;;;;;3.25;1.30;;;;;;;19.06;30.46;99751.92;1820385;78;21044;-55
2021/05/06 12:16:17;;;;;;;6.97;2.10;;;;;;;19.30;29.66;99756.09;1812767;78;22594;-55
2021/05/06 12:19:11;;;;;;;6.65;1.80;;;;;;;19.52;29.42;99751.22;1818701;77;21076;-55
2021/05/06 12:21:47;;;;;;;4.20;1.42;;;;;;;19.69;28.90;99757.92;1809890;77;20993;-55
2021/05/06 12:24:38;;;;;;;2.25;1.30;;;;;;;19.81;28.79;99765.46;1814935;78;21082;-54
2021/05/06 12:27:26;;;;;;;5.72;1.60;;;;;;;20.04;28.77;99755.18;1819936;78;21745;-54
2021/05/06 12:30:02;;;;;;;3.12;1.42;;;;;;;20.48;29.27;99748.84;1812443;77;21326;-55
2021/05/06 12:32:35;;;;;;;6.92;2.00;;;;;;;20.99;28.37;99750.39;1813961;77;21001;-54
2021/05/06 12:35:19;;;;;;;;;;;;;;;;;;;;;
2021/05/06 12:37:44;;;;;;;4.62;1.60;;;;;;;21.63;27.93;99740.53;1828766;77;23881;-54
2021/05/06 12:40:13;;;;;;;4.30;1.65;;;;;;;21.83;27.38;99755.94;1792502;78;21088;-55
2021/05/06 12:42:41;;;;;;;3.95;1.60;;;;;;;21.94;26.55;99765.36;1790490;78;21210;-53
2021/05/06 12:45:20;;;;;;;2.02;1.10;;;;;;;21.93;26.18;99746.97;1754355;80;21031;-53
2021/05/06 12:47:49;;;;;;;7.65;1.72;;;;;;;21.97;25.60;99753.44;1795693;78;21022;-54
2021/05/06 12:50:21;;;;;;;12.20;2.52;;;;;;;21.94;25.94;99742.20;1793125;78;21045;-55
2021/05/06 12:53:07;;;;;;;2.80;1.57;;;;;;;21.64;26.41;99748.34;1787589;78;21055;-54
2021/05/06 12:55:41;;;;;;;4.97;1.40;;;;;;;21.22;27.08;99742.17;1749598;79;21206;-54
2021/05/06 12:58:15;;;;;;;4.87;1.47;;;;;;;20.87;27.45;99736.52;1791294;78;21069;-53
2021/05/06 13:00:46;;;;;;;3.02;1.40;;;;;;;20.55;28.16;99747.63;1789752;78;21027;-53
2021/05/06 13:03:16;;;;;;;4.50;1.62;;;;;;;20.45;28.72;99750.92;1790781;78;21173;-55
2021/05/06 13:05:48;;;;;;;7.45;3.02;;;;;;;20.77;28.69;99735.07;1793313;78;21045;-55
2021/05/06 13:08:16;;;;;;;6.67;1.85;;;;;;;21.20;27.24;99738.92;1789142;78;21546;-53
2021/05/06 13:10:47;;;;;;;3.15;1.52;;;;;;;21.57;26.75;99736.41;1748913;80;21052;-54
2021/05/06 13:13:41;;;;;;;5.85;1.40;;;;;;;21.90;26.39;99735.13;1776488;79;21043;-54
2021/05/06 13:16:11;;;;;;;7.00;1.60;;;;;;;21.99;26.20;99732.94;1777743;79;21073;-56
2021/05/06 13:18:59;;;;;;;7.25;1.50;;;;;;;22.01;25.99;99741.75;1771228;79;21048;-55
2021/05/06 13:21:26;;;;;;;3.42;1.30;;;;;;;21.86;25.59;99736.46;1773483;79;21423;-55
2021/05/06 13:23:54;;;;;;;3.25;1.40;;;;;;;22.02;25.46;99728.00;1776334;79;21052;-55
2021/05/06 13:26:39;;;;;;;5.25;1.27;;;;;;;21.91;25.80;99743.73;1773540;79;21085;-55
2021/05/06 13:29:13;;;;;;;3.75;1.40;;;;;;;21.48;25.58;99737.98;1778727;79;21012;-54
2021/05/06 13:31:40;;;;;;;5.35;1.75;;;;;;;21.15;25.61;99736.42;1775024;78;21005;-56
2021/05/06 13:34:20;;;;;;;5.53;1.42;;;;;;;21.08;26.17;99742.40;1777027;79;21332;-55
2021/05/06 13:37:04;;;;;;;2.70;0.93;;;;;;;20.94;24.39;99745.67;1774126;79;21060;-56
2021/05/06 13:39:35;;;;;;;2.25;1.32;;;;;;;20.34;24.01;99738.09;1781065;79;21057;-55
2021/05/06 13:42:03;;;;;;;14.43;1.90;;;;;;;19.69;24.54;99740.38;1773485;79;20979;-54
2021/05/06 13:44:35;;;;;;;8.30;1.80;;;;;;;19.39;25.54;99730.94;1773351;79;21038;-54
2021/05/06 13:47:06;;;;;;;9.95;1.50;;;;;;;19.51;25.64;99749.59;1776659;79;21164;-54
2021/05/06 13:49:34;;;;;;;4.45;1.57;;;;;;;20.07;24.71;99741.13;1777372;80;21061;-55
2021/05/06 13:52:05;;;;;;;11.68;2.77;;;;;;;20.74;24.53;99740.58;1779657;79;21061;-55
2021/05/06 13:54:32;;;;;;;13.65;2.67;;;;;;;21.28;23.50;99746.90;1774597;79;21030;-54
2021/05/06 13:57:00;;;;;;;6.45;2.52;;;;;;;21.66;23.28;99737.59;1783426;79;21051;-54
2021/05/06 13:59:27;;;;;;;4.50;1.90;;;;;;;22.06;22.49;99745.66;1777083;79;21433;-53
2021/05/06 14:01:56;;;;;;;6.15;1.87;;;;;;;22.20;22.24;99745.72;1772066;79;21105;-55
2021/05/06 14:04:25;;;;;;;9.88;1.55;;;;;;;22.13;21.90;99742.17;1784223;79;21070;-55
2021/05/06 14:06:52;;;;;;;11.22;1.75;;;;;;;22.08;22.49;99739.70;1778697;79;21129;-54
2021/05/06 14:09:20;;;;;;;2.10;1.20;;;;;;;22.26;22.29;99745.62;1776581;79;21084;-55
2021/05/06 14:11:48;;;;;;;7.75;1.62;;;;;;;22.47;21.45;99754.27;1779806;79;21378;-55
2021/05/06 14:14:17;;;;;;;9.95;2.08;;;;;;;22.57;21.47;99765.64;1781324;79;21049;-54
2021/05/06 14:16:44;;;;;;;3.72;1.10;;;;;;;22.84;21.60;99762.14;1787769;79;21057;-56
2021/05/06 14:19:13;;;;;;;3.45;1.20;;;;;;;23.01;21.11;99763.03;1771311;79;21640;-55
2021/05/06 14:21:46;;;;;;;7.50;1.62;;;;;;;23.13;20.93;99756.45;1776042;80;21064;-55
2021/05/06 14:24:14;;;;;;;6.30;1.65;;;;;;;22.78;21.55;99757.44;1776532;79;21156;-56
2021/05/06 14:26:47;;;;;;;4.08;1.52;;;;;;;22.65;21.81;99761.58;1776416;79;21627;-56
2021/05/06 14:29:15;;;;;;;9.08;2.00;;;;;;;22.47;21.85;99752.87;1780601;79;21033;-55
2021/05/06 14:31:43;;;;;;;3.25;1.42;;;;;;;22.00;22.26;99770.88;1775798;79;21045;-55
2021/05/06 14:34:11;;;;;;;6.58;1.82;;;;;;;21.50;22.51;99760.77;1774621;79;21018;-54
2021/05/06 14:36:38;;;;;;;4.55;1.50;;;;;;;21.00;22.81;99757.58;1770884;79;21953;-55
2021/05/06 14:39:08;;;;;;;5.60;1.17;;;;;;;21.00;22.91;99765.95;1746857;80;21093;-55
2021/05/06 14:41:38;;;;;;;7.12;1.50;;;;;;;21.33;21.76;99763.95;1747322;80;21104;-54
2021/05/06 14:44:07;;;;;;;7.47;1.40;;;;;;;21.34;21.93;99755.21;1748217;81;21680;-55
2021/05/06 14:46:35;;;;;;;3.92;1.60;;;;;;;21.52;21.56;99755.67;1743483;81;21665;-55
2021/05/06 14:49:04;;;;;;;3.10;1.25;;;;;;;21.56;21.82;99759.93;1742109;81;21384;-55
2021/05/06 14:51:32;;;;;;;6.15;2.05;;;;;;;21.61;21.73;99761.66;1722806;81;21077;-57
2021/05/06 14:54:00;;;;;;;5.10;1.40;;;;;;;21.73;22.11;99763.73;1744275;81;21163;-54
2021/05/06 14:56:28;;;;;;;2.80;1.20;;;;;;;21.58;21.98;99763.19;1747053;81;21675;-54
2021/05/06 14:58:56;;;;;;;12.78;1.95;;;;;;;21.19;22.33;99761.62;1747833;81;21059;-56
2021/05/06 15:01:25;;;;;;;13.83;2.02;;;;;;;20.59;23.27;99755.52;1744824;81;22099;-54